La Suprema — IBIL — position and weather

sailwx.info

Track history (hours):
 
Tides and Currents Weather Stations Pressure Air Temp Water Temp Dewpoint Dewpoint Depression Visibility Wind Speed Wind Dir Waves Ship Positions

La Suprema

Last reported at 2015-Jan-29 03:21 UTC. Time now 2015-Jan-30 02:36 UTC.
Position N 42°40' E 009°48'.

Length 211 m; draft 6.9 m.

Type: Passenger vessel. MMSI: 247083700.

Date/timePositionNaut miles runAvg speedWind from/ knotsBaromVisibWave heightAir tempDewpointWater temp
2015-Jan-29 03:21N 42°40' E 009°48'3721.0
2015-Jan-29 01:33N 43°16' E 009°31'2121.5
2015-Jan-29 00:34N 43°36' E 009°20'2221.6
2015-Jan-28 23:34N 43°56' E 009°10'2121.4
2015-Jan-28 22:33N 44°16' E 009°00'9 9.1
2015-Jan-28 21:33N 44°25' E 008°55'0 0.0
2015-Jan-28 20:33N 44°25' E 008°55'0 0.0
2015-Jan-28 19:26N 44°25' E 008°55'0 0.0
2015-Jan-28 18:14N 44°25' E 008°55'2 2.3
2015-Jan-28 17:33N 44°23' E 008°56'2120.6
2015-Jan-28 16:33N 44°05' E 009°10'2221.8
2015-Jan-28 15:33N 43°46' E 009°25'2221.9
2015-Jan-28 14:33N 43°27' E 009°39'2121.4
2015-Jan-28 13:33N 43°09' E 009°56'31023.2
2015-Jan-28 00:13N 38°35' E 013°06'1624.3
2015-Jan-27 23:34N 38°22' E 013°18'1414.1
2015-Jan-27 22:33N 38°08' E 013°22'0 0.0
2015-Jan-27 21:33N 38°08' E 013°22'0 0.0
2015-Jan-27 20:33N 38°08' E 013°22'0 0.0
2015-Jan-27 19:33N 38°08' E 013°22'0 0.0
2015-Jan-27 18:33N 38°08' E 013°22'1 0.7
2015-Jan-27 17:33N 38°07' E 013°23'1818.0
2015-Jan-27 16:33N 38°25' E 013°15'30123.2
2015-Jan-27 03:33N 42°41' E 009°48'3020.9
2015-Jan-27 02:07N 43°09' E 009°34'1221.2
2015-Jan-27 01:33N 43°20' E 009°28'2121.1
2015-Jan-27 00:33N 43°40' E 009°18'2121.4
2015-Jan-26 23:33N 44°00' E 009°08'2221.5
2015-Jan-26 22:33N 44°21' E 008°58'4 4.3
2015-Jan-26 21:33N 44°25' E 008°55'0 0.0
2015-Jan-26 20:31N 44°25' E 008°55'0 0.0
2015-Jan-26 19:33N 44°25' E 008°55'0 0.0
2015-Jan-26 18:33N 44°25' E 008°55'0 0.0
2015-Jan-26 17:33N 44°25' E 008°55'0 0.0
2015-Jan-26 16:33N 44°25' E 008°55'0 0.0
2015-Jan-26 15:33N 44°25' E 008°55'0 0.0
2015-Jan-26 14:33N 44°25' E 008°55'0 0.0
2015-Jan-26 13:33N 44°25' E 008°55'0 0.0
2015-Jan-26 12:33N 44°25' E 008°55'0 0.0
2015-Jan-26 11:33N 44°25' E 008°55'0 0.0
2015-Jan-26 10:33N 44°25' E 008°55'0 0.0
2015-Jan-26 09:33N 44°25' E 008°55'0 0.0
2015-Jan-26 08:33N 44°25' E 008°55'0 0.0
2015-Jan-26 07:33N 44°25' E 008°55'0 0.0
2015-Jan-26 06:33N 44°25' E 008°55'0 0.0
2015-Jan-26 05:33N 44°25' E 008°55'0 0.0
2015-Jan-26 04:33N 44°25' E 008°55'0 0.0
2015-Jan-26 03:33N 44°25' E 008°55'0 0.0
2015-Jan-26 02:33N 44°25' E 008°55'0 0.0
2015-Jan-26 01:33N 44°25' E 008°55'0 0.0
2015-Jan-26 00:33N 44°25' E 008°55'0 0.0
2015-Jan-25 23:33N 44°25' E 008°55'0 0.0
2015-Jan-25 22:33N 44°25' E 008°55'0 0.0
2015-Jan-25 21:33N 44°25' E 008°55'0 0.0
2015-Jan-25 20:32N 44°25' E 008°55'0 0.0
2015-Jan-25 19:33N 44°25' E 008°55'0 0.1
2015-Jan-25 18:33N 44°25' E 008°55'1717.4
2015-Jan-25 17:34N 44°10' E 009°07'2524.5
2015-Jan-25 16:34N 43°49' E 009°25'2424.3
2015-Jan-25 15:34N 43°28' E 009°42'2424.5
2015-Jan-25 14:33N 43°06' E 009°58'30222.4
2015-Jan-25 01:05N 38°39' E 013°03'1120.7
2015-Jan-25 00:34N 38°29' E 013°11'2121.5
2015-Jan-24 23:33N 38°11' E 013°25'4 4.1
2015-Jan-24 22:33N 38°08' E 013°22'0 0.0
2015-Jan-24 21:33N 38°08' E 013°22'0 0.0
2015-Jan-24 20:33N 38°08' E 013°22'0 0.0
2015-Jan-24 19:33N 38°08' E 013°22'0 0.0
2015-Jan-24 18:33N 38°08' E 013°22'10 9.8
2015-Jan-24 17:34N 38°18' E 013°21'2522.2
2015-Jan-24 16:27N 38°38' E 013°04'28321.7
2015-Jan-24 03:26N 42°39' E 009°49'4021.2
2015-Jan-24 01:33N 43°17' E 009°30'2121.0
2015-Jan-24 00:33N 43°37' E 009°20'2222.2
2015-Jan-23 23:33N 43°57' E 009°09'2221.8
2015-Jan-23 22:33N 44°18' E 008°59'7 7.2
2015-Jan-23 21:33N 44°25' E 008°55'0 0.0
2015-Jan-23 20:33N 44°25' E 008°55'0 0.0
2015-Jan-23 19:33N 44°25' E 008°55'0 0.0
2015-Jan-23 18:33N 44°25' E 008°55'3 2.6
2015-Jan-23 17:33N 44°23' E 008°57'2423.8
2015-Jan-23 16:34N 44°02' E 009°13'2524.6
2015-Jan-23 15:34N 43°41' E 009°31'2424.2
2015-Jan-23 14:34N 43°20' E 009°48'32421.6
2015-Jan-22 23:34N 38°34' E 013°08'2121.1
2015-Jan-22 22:34N 38°16' E 013°22'8 7.9
2015-Jan-22 21:34N 38°08' E 013°22'0 0.0
2015-Jan-22 20:34N 38°08' E 013°22'0 0.0
2015-Jan-22 19:34N 38°08' E 013°22'0 0.0
2015-Jan-22 18:34N 38°08' E 013°22'3 2.7
2015-Jan-22 17:34N 38°10' E 013°24'2221.4
2015-Jan-22 16:33N 38°29' E 013°11'33322.2
2015-Jan-22 01:33N 43°16' E 009°30'2423.8
2015-Jan-22 00:34N 43°39' E 009°19'2524.6
2015-Jan-21 23:34N 44°02' E 009°07'1724.4
2015-Jan-21 22:50N 44°18' E 008°59'224.2
2015-Jan-21 22:46N 44°20' E 008°58'418.9
2015-Jan-21 22:33N 44°24' E 008°56'1 1.3
2015-Jan-21 21:33N 44°25' E 008°55'0 0.0
2015-Jan-21 20:32N 44°25' E 008°55'0 0.0
2015-Jan-21 19:32N 44°25' E 008°55'0 0.0
2015-Jan-21 18:33N 44°25' E 008°55'4 3.8
2015-Jan-21 17:33N 44°22' E 008°58'2120.7
2015-Jan-21 16:33N 44°03' E 009°12'2221.8
2015-Jan-21 15:33N 43°45' E 009°28'2221.8
2015-Jan-21 14:33N 43°26' E 009°43'32723.4
2015-Jan-21 00:34N 38°37' E 013°05'2424.1
2015-Jan-20 23:34N 38°16' E 013°21'8 8.2
2015-Jan-20 22:32N 38°08' E 013°22'0 0.0
2015-Jan-20 21:32N 38°08' E 013°22'0 0.0
2015-Jan-20 20:31N 38°08' E 013°22'0 0.0
2015-Jan-20 19:31N 38°08' E 013°22'0 0.0
2015-Jan-20 18:33N 38°08' E 013°22'3 3.2
2015-Jan-20 17:33N 38°11' E 013°24'2321.6
2015-Jan-20 16:31N 38°30' E 013°10'29422.3
2015-Jan-20 03:21N 42°41' E 009°48'2923.5
2015-Jan-20 02:07N 43°08' E 009°35'1424.1
2015-Jan-20 01:33N 43°21' E 009°28'2424.2
2015-Jan-20 00:34N 43°43' E 009°16'2424.4
2015-Jan-19 23:34N 44°06' E 009°05'2019.4
2015-Jan-19 22:33N 44°24' E 008°55'0 0.0
2015-Jan-19 21:32N 44°24' E 008°55'0 0.0
2015-Jan-19 20:32N 44°24' E 008°55'0 0.0
2015-Jan-19 19:29N 44°24' E 008°55'0 0.0
2015-Jan-19 18:31N 44°24' E 008°55'0 0.0
2015-Jan-19 17:31N 44°24' E 008°55'0 0.0
2015-Jan-19 16:24N 44°24' E 008°55'0 0.0
2015-Jan-19 15:33N 44°24' E 008°55'0 0.0
2015-Jan-19 14:29N 44°24' E 008°55'0 0.0
2015-Jan-19 13:32N 44°24' E 008°55'0 0.0
2015-Jan-19 12:19N 44°24' E 008°55'0 0.0
2015-Jan-19 11:25N 44°24' E 008°55'0 0.0
2015-Jan-19 10:28N 44°24' E 008°55'0 0.0
2015-Jan-19 09:15N 44°24' E 008°55'0 0.0
2015-Jan-19 08:27N 44°24' E 008°55'0 0.0
2015-Jan-19 07:29N 44°24' E 008°55'0 0.0
2015-Jan-19 04:31N 44°24' E 008°55'0 0.0
2015-Jan-19 03:25N 44°24' E 008°55'  
Track history (hours):
 
Tides and Currents Weather Stations Pressure Air Temp Water Temp Dewpoint Dewpoint Depression Visibility Wind Speed Wind Dir Waves Ship Positions

La Suprema

Last reported at 2015-Jan-29 03:21 UTC. Time now 2015-Jan-30 02:36 UTC.
Position N 42°40' E 009°48'.

Length 211 m; draft 6.9 m.

Type: Passenger vessel. MMSI: 247083700.

Date/timePositionNaut miles runAvg speedWind from/ knotsBaromVisibWave heightAir tempDewpointWater temp
2015-Jan-29 03:21N 42°40' E 009°48'3721.0
2015-Jan-29 01:33N 43°16' E 009°31'2121.5
2015-Jan-29 00:34N 43°36' E 009°20'2221.6
2015-Jan-28 23:34N 43°56' E 009°10'2121.4
2015-Jan-28 22:33N 44°16' E 009°00'9 9.1
2015-Jan-28 21:33N 44°25' E 008°55'0 0.0
2015-Jan-28 20:33N 44°25' E 008°55'0 0.0
2015-Jan-28 19:26N 44°25' E 008°55'0 0.0
2015-Jan-28 18:14N 44°25' E 008°55'2 2.3
2015-Jan-28 17:33N 44°23' E 008°56'2120.6
2015-Jan-28 16:33N 44°05' E 009°10'2221.8
2015-Jan-28 15:33N 43°46' E 009°25'2221.9
2015-Jan-28 14:33N 43°27' E 009°39'2121.4
2015-Jan-28 13:33N 43°09' E 009°56'31023.2
2015-Jan-28 00:13N 38°35' E 013°06'1624.3
2015-Jan-27 23:34N 38°22' E 013°18'1414.1
2015-Jan-27 22:33N 38°08' E 013°22'0 0.0
2015-Jan-27 21:33N 38°08' E 013°22'0 0.0
2015-Jan-27 20:33N 38°08' E 013°22'0 0.0
2015-Jan-27 19:33N 38°08' E 013°22'0 0.0
2015-Jan-27 18:33N 38°08' E 013°22'1 0.7
2015-Jan-27 17:33N 38°07' E 013°23'1818.0
2015-Jan-27 16:33N 38°25' E 013°15'30123.2
2015-Jan-27 03:33N 42°41' E 009°48'3020.9
2015-Jan-27 02:07N 43°09' E 009°34'1221.2
2015-Jan-27 01:33N 43°20' E 009°28'2121.1
2015-Jan-27 00:33N 43°40' E 009°18'2121.4
2015-Jan-26 23:33N 44°00' E 009°08'2221.5
2015-Jan-26 22:33N 44°21' E 008°58'4 4.3
2015-Jan-26 21:33N 44°25' E 008°55'0 0.0
2015-Jan-26 20:31N 44°25' E 008°55'0 0.0
2015-Jan-26 19:33N 44°25' E 008°55'0 0.0
2015-Jan-26 18:33N 44°25' E 008°55'0 0.0
2015-Jan-26 17:33N 44°25' E 008°55'0 0.0
2015-Jan-26 16:33N 44°25' E 008°55'0 0.0
2015-Jan-26 15:33N 44°25' E 008°55'0 0.0
2015-Jan-26 14:33N 44°25' E 008°55'0 0.0
2015-Jan-26 13:33N 44°25' E 008°55'0 0.0
2015-Jan-26 12:33N 44°25' E 008°55'0 0.0
2015-Jan-26 11:33N 44°25' E 008°55'0 0.0
2015-Jan-26 10:33N 44°25' E 008°55'0 0.0
2015-Jan-26 09:33N 44°25' E 008°55'0 0.0
2015-Jan-26 08:33N 44°25' E 008°55'0 0.0
2015-Jan-26 07:33N 44°25' E 008°55'0 0.0
2015-Jan-26 06:33N 44°25' E 008°55'0 0.0
2015-Jan-26 05:33N 44°25' E 008°55'0 0.0
2015-Jan-26 04:33N 44°25' E 008°55'0 0.0
2015-Jan-26 03:33N 44°25' E 008°55'0 0.0
2015-Jan-26 02:33N 44°25' E 008°55'0 0.0
2015-Jan-26 01:33N 44°25' E 008°55'0 0.0
2015-Jan-26 00:33N 44°25' E 008°55'0 0.0
2015-Jan-25 23:33N 44°25' E 008°55'0 0.0
2015-Jan-25 22:33N 44°25' E 008°55'0 0.0
2015-Jan-25 21:33N 44°25' E 008°55'0 0.0
2015-Jan-25 20:32N 44°25' E 008°55'0 0.0
2015-Jan-25 19:33N 44°25' E 008°55'0 0.1
2015-Jan-25 18:33N 44°25' E 008°55'1717.4
2015-Jan-25 17:34N 44°10' E 009°07'2524.5
2015-Jan-25 16:34N 43°49' E 009°25'2424.3
2015-Jan-25 15:34N 43°28' E 009°42'2424.5
2015-Jan-25 14:33N 43°06' E 009°58'30222.4
2015-Jan-25 01:05N 38°39' E 013°03'1120.7
2015-Jan-25 00:34N 38°29' E 013°11'2121.5
2015-Jan-24 23:33N 38°11' E 013°25'4 4.1
2015-Jan-24 22:33N 38°08' E 013°22'0 0.0
2015-Jan-24 21:33N 38°08' E 013°22'0 0.0
2015-Jan-24 20:33N 38°08' E 013°22'0 0.0
2015-Jan-24 19:33N 38°08' E 013°22'0 0.0
2015-Jan-24 18:33N 38°08' E 013°22'10 9.8
2015-Jan-24 17:34N 38°18' E 013°21'2522.2
2015-Jan-24 16:27N 38°38' E 013°04'28321.7
2015-Jan-24 03:26N 42°39' E 009°49'4021.2
2015-Jan-24 01:33N 43°17' E 009°30'2121.0
2015-Jan-24 00:33N 43°37' E 009°20'2222.2
2015-Jan-23 23:33N 43°57' E 009°09'2221.8
2015-Jan-23 22:33N 44°18' E 008°59'7 7.2
2015-Jan-23 21:33N 44°25' E 008°55'0 0.0
2015-Jan-23 20:33N 44°25' E 008°55'0 0.0
2015-Jan-23 19:33N 44°25' E 008°55'0 0.0
2015-Jan-23 18:33N 44°25' E 008°55'3 2.6
2015-Jan-23 17:33N 44°23' E 008°57'2423.8
2015-Jan-23 16:34N 44°02' E 009°13'2524.6
2015-Jan-23 15:34N 43°41' E 009°31'2424.2
2015-Jan-23 14:34N 43°20' E 009°48'32421.6
2015-Jan-22 23:34N 38°34' E 013°08'2121.1
2015-Jan-22 22:34N 38°16' E 013°22'8 7.9
2015-Jan-22 21:34N 38°08' E 013°22'0 0.0
2015-Jan-22 20:34N 38°08' E 013°22'0 0.0
2015-Jan-22 19:34N 38°08' E 013°22'0 0.0
2015-Jan-22 18:34N 38°08' E 013°22'3 2.7
2015-Jan-22 17:34N 38°10' E 013°24'2221.4
2015-Jan-22 16:33N 38°29' E 013°11'33322.2
2015-Jan-22 01:33N 43°16' E 009°30'2423.8
2015-Jan-22 00:34N 43°39' E 009°19'2524.6
2015-Jan-21 23:34N 44°02' E 009°07'1724.4
2015-Jan-21 22:50N 44°18' E 008°59'224.2
2015-Jan-21 22:46N 44°20' E 008°58'418.9
2015-Jan-21 22:33N 44°24' E 008°56'1 1.3
2015-Jan-21 21:33N 44°25' E 008°55'0 0.0
2015-Jan-21 20:32N 44°25' E 008°55'0 0.0
2015-Jan-21 19:32N 44°25' E 008°55'0 0.0
2015-Jan-21 18:33N 44°25' E 008°55'4 3.8
2015-Jan-21 17:33N 44°22' E 008°58'2120.7
2015-Jan-21 16:33N 44°03' E 009°12'2221.8
2015-Jan-21 15:33N 43°45' E 009°28'2221.8
2015-Jan-21 14:33N 43°26' E 009°43'32723.4
2015-Jan-21 00:34N 38°37' E 013°05'2424.1
2015-Jan-20 23:34N 38°16' E 013°21'8 8.2
2015-Jan-20 22:32N 38°08' E 013°22'0 0.0
2015-Jan-20 21:32N 38°08' E 013°22'0 0.0
2015-Jan-20 20:31N 38°08' E 013°22'0 0.0
2015-Jan-20 19:31N 38°08' E 013°22'0 0.0
2015-Jan-20 18:33N 38°08' E 013°22'3 3.2
2015-Jan-20 17:33N 38°11' E 013°24'2321.6
2015-Jan-20 16:31N 38°30' E 013°10'29422.3
2015-Jan-20 03:21N 42°41' E 009°48'2923.5
2015-Jan-20 02:07N 43°08' E 009°35'1424.1
2015-Jan-20 01:33N 43°21' E 009°28'2424.2
2015-Jan-20 00:34N 43°43' E 009°16'2424.4
2015-Jan-19 23:34N 44°06' E 009°05'2019.4
2015-Jan-19 22:33N 44°24' E 008°55'0 0.0
2015-Jan-19 21:32N 44°24' E 008°55'0 0.0
2015-Jan-19 20:32N 44°24' E 008°55'0 0.0
2015-Jan-19 19:29N 44°24' E 008°55'0 0.0
2015-Jan-19 18:31N 44°24' E 008°55'0 0.0
2015-Jan-19 17:31N 44°24' E 008°55'0 0.0
2015-Jan-19 16:24N 44°24' E 008°55'0 0.0
2015-Jan-19 15:33N 44°24' E 008°55'0 0.0
2015-Jan-19 14:29N 44°24' E 008°55'0 0.0
2015-Jan-19 13:32N 44°24' E 008°55'0 0.0
2015-Jan-19 12:19N 44°24' E 008°55'0 0.0
2015-Jan-19 11:25N 44°24' E 008°55'0 0.0
2015-Jan-19 10:28N 44°24' E 008°55'0 0.0
2015-Jan-19 09:15N 44°24' E 008°55'0 0.0
2015-Jan-19 08:27N 44°24' E 008°55'0 0.0
2015-Jan-19 07:29N 44°24' E 008°55'0 0.0
2015-Jan-19 04:31N 44°24' E 008°55'0 0.0
2015-Jan-19 03:25N 44°24' E 008°55'  

Dump ship's entire track history